createdAt,value
2023-03-17T00:01:18.140Z,96702.41
2023-03-17T00:03:45.022Z,96703.72
2023-03-17T00:06:25.428Z,96704.31
2023-03-17T00:08:52.081Z,96704.31
2023-03-17T00:11:18.751Z,96702.63
2023-03-17T00:13:45.429Z,96695.13
2023-03-17T00:16:20.351Z,96702.75
2023-03-17T00:18:47.095Z,96708.00
2023-03-17T00:21:14.010Z,96705.28
2023-03-17T00:23:40.956Z,96708.44
2023-03-17T00:26:07.650Z,96704.31
2023-03-17T00:28:34.293Z,96710.00
2023-03-17T00:31:01.058Z,96713.41
2023-03-17T00:33:31.064Z,96711.84
2023-03-17T00:35:57.738Z,96725.38
2023-03-17T00:38:24.431Z,96725.03
2023-03-17T00:40:51.122Z,96713.91
2023-03-17T00:43:17.815Z,96705.75
2023-03-17T00:45:44.461Z,96713.06
2023-03-17T00:48:19.383Z,96710.56
2023-03-17T00:50:46.239Z,96711.56
2023-03-17T00:53:14.125Z,96713.41
2023-03-17T00:55:41.473Z,96708.69
2023-03-17T00:58:17.821Z,96699.97
2023-03-17T01:00:44.490Z,96703.78
2023-03-17T01:03:12.075Z,96702.53
2023-03-17T01:05:39.251Z,96701.28
2023-03-17T01:08:05.999Z,96694.81
2023-03-17T01:10:32.663Z,96686.75
2023-03-17T01:12:59.498Z,96688.91
2023-03-17T01:15:28.153Z,96688.63
2023-03-17T01:17:54.798Z,96681.75
2023-03-17T01:20:25.814Z,96682.97
2023-03-17T01:22:52.450Z,96683.41
2023-03-17T01:25:19.088Z,96686.22
2023-03-17T01:27:46.017Z,96686.28
2023-03-17T01:30:24.568Z,96665.06
2023-03-17T01:32:51.266Z,96668.88
2023-03-17T01:35:18.437Z,96671.78
2023-03-17T01:37:45.738Z,96653.13
2023-03-17T01:40:23.172Z,96653.50
2023-03-17T01:42:53.180Z,96649.63
2023-03-17T01:45:57.333Z,96654.69
2023-03-17T01:48:23.994Z,96651.72
2023-03-17T01:50:50.624Z,96644.75
2023-03-17T01:53:17.255Z,96643.66
2023-03-17T01:55:43.877Z,96643.41
2023-03-17T01:58:10.519Z,96644.38
2023-03-17T02:00:37.161Z,96644.16
2023-03-17T02:03:03.845Z,96647.81
2023-03-17T02:05:30.508Z,96635.78
2023-03-17T02:07:58.538Z,96646.13
2023-03-17T02:10:25.345Z,96633.50
2023-03-17T02:12:55.105Z,96635.31
2023-03-17T02:15:21.794Z,96632.00
2023-03-17T02:17:48.463Z,96634.16
2023-03-17T02:20:17.710Z,96630.19
2023-03-17T02:22:44.929Z,96617.38
2023-03-17T02:25:11.553Z,96621.88
2023-03-17T02:27:39.783Z,96609.94
2023-03-17T02:30:07.004Z,96606.66
2023-03-17T02:32:36.654Z,96600.88
2023-03-17T02:35:03.757Z,96605.25
2023-03-17T02:37:30.444Z,96599.38
2023-03-17T02:39:57.104Z,96601.94
2023-03-17T02:42:23.737Z,96609.91
2023-03-17T02:44:50.385Z,96600.81
2023-03-17T02:47:17.031Z,96594.72
2023-03-17T02:49:43.651Z,96584.25
2023-03-17T02:52:10.294Z,96591.91
2023-03-17T02:54:36.935Z,96591.66
2023-03-17T02:57:03.599Z,96575.03
2023-03-17T02:59:30.259Z,96584.91
2023-03-17T03:01:56.947Z,96595.72
2023-03-17T03:04:23.583Z,96599.19
2023-03-17T03:06:50.249Z,96592.88
2023-03-17T03:09:16.912Z,96593.88
2023-03-17T03:11:43.592Z,96594.03
2023-03-17T03:14:10.320Z,96593.56
2023-03-17T03:16:37.236Z,96599.34
2023-03-17T03:19:04.076Z,96601.91
2023-03-17T03:21:30.720Z,96607.50
2023-03-17T03:23:57.382Z,96601.91
2023-03-17T03:26:24.029Z,96596.78
2023-03-17T03:28:50.671Z,96607.16
2023-03-17T03:31:17.354Z,96600.50
2023-03-17T03:33:44.321Z,96599.13
2023-03-17T03:36:11.017Z,96601.69
2023-03-17T03:38:37.662Z,96592.13
2023-03-17T03:41:04.309Z,96592.81
2023-03-17T03:43:31.029Z,96582.19
2023-03-17T03:45:57.690Z,96581.19
2023-03-17T03:48:24.423Z,96591.06
2023-03-17T03:50:51.070Z,96594.81
2023-03-17T03:53:17.713Z,96597.28
2023-03-17T03:55:44.348Z,96594.47
2023-03-17T03:58:10.979Z,96600.38
2023-03-17T04:00:37.599Z,96604.56
2023-03-17T04:03:04.310Z,96605.06
2023-03-17T04:05:31.026Z,96610.75
2023-03-17T04:07:57.699Z,96611.22
2023-03-17T04:10:24.343Z,96629.66
2023-03-17T04:12:50.981Z,96621.94
2023-03-17T04:15:18.483Z,96610.63
2023-03-17T04:17:45.229Z,96609.63
2023-03-17T04:20:12.350Z,96616.63
2023-03-17T04:22:39.354Z,96611.97
2023-03-17T04:25:06.414Z,96606.91
2023-03-17T04:27:33.027Z,96603.47
2023-03-17T04:29:59.673Z,96620.53
2023-03-17T04:32:27.265Z,96619.28
2023-03-17T04:34:53.986Z,96622.09
2023-03-17T04:37:20.649Z,96618.03
2023-03-17T04:39:47.299Z,96616.63
2023-03-17T04:42:14.012Z,96602.44
2023-03-17T04:44:40.644Z,96596.81
2023-03-17T04:47:07.295Z,96600.53
2023-03-17T04:49:33.941Z,96597.19
2023-03-17T04:52:00.584Z,96602.59
2023-03-17T04:54:27.243Z,96603.19
2023-03-17T04:56:53.957Z,96594.88
2023-03-17T04:59:20.584Z,96588.97
2023-03-17T05:01:47.231Z,96589.31
2023-03-17T05:04:25.279Z,96593.63
2023-03-17T05:06:57.293Z,96595.97
2023-03-17T05:09:24.784Z,96596.59
2023-03-17T05:11:51.411Z,96601.16
2023-03-17T05:14:18.061Z,96597.50
2023-03-17T05:16:47.242Z,96593.41
2023-03-17T05:19:13.955Z,96597.31
2023-03-17T05:21:40.601Z,96599.84
2023-03-17T05:24:07.243Z,96604.16
2023-03-17T05:26:33.880Z,96613.25
2023-03-17T05:29:00.569Z,96608.63
2023-03-17T05:31:27.316Z,96614.13
2023-03-17T05:33:53.994Z,96622.91
2023-03-17T05:36:20.672Z,96615.94
2023-03-17T05:38:47.329Z,96614.13
2023-03-17T05:41:13.973Z,96619.00
2023-03-17T05:43:40.622Z,96620.94
2023-03-17T05:46:07.300Z,96625.13
2023-03-17T05:48:33.926Z,96620.81
2023-03-17T05:51:00.742Z,96626.16
2023-03-17T05:53:27.604Z,96620.25
2023-03-17T05:55:54.283Z,96618.78
2023-03-17T05:58:20.950Z,96616.88
2023-03-17T06:00:47.615Z,96616.09
2023-03-17T06:03:14.386Z,96624.34
2023-03-17T06:05:41.030Z,96628.81
2023-03-17T06:08:08.499Z,96630.56
2023-03-17T06:10:35.160Z,96632.38
2023-03-17T06:13:03.856Z,96629.06
2023-03-17T06:15:31.120Z,96620.19
2023-03-17T06:17:58.013Z,96623.59
2023-03-17T06:20:24.769Z,96625.56
2023-03-17T06:23:03.258Z,96616.69
2023-03-17T06:25:31.099Z,96615.44
2023-03-17T06:27:57.939Z,96618.34
2023-03-17T06:30:24.670Z,96616.34
2023-03-17T06:32:51.387Z,96611.78
2023-03-17T06:35:18.123Z,96610.47
2023-03-17T06:37:45.053Z,96613.78
2023-03-17T06:40:12.315Z,96613.06
2023-03-17T06:42:39.168Z,96618.34
2023-03-17T06:45:06.207Z,96612.19
2023-03-17T06:47:32.942Z,96624.00
2023-03-17T06:49:59.616Z,96625.06
2023-03-17T06:52:26.247Z,96633.91
2023-03-17T06:54:52.883Z,96635.16
2023-03-17T06:57:19.524Z,96647.47
2023-03-17T06:59:46.250Z,96652.59
2023-03-17T07:02:13.016Z,96651.84
2023-03-17T07:04:39.656Z,96647.56
2023-03-17T07:07:06.329Z,96657.94
2023-03-17T07:09:33.479Z,96646.34
2023-03-17T07:12:01.001Z,96648.56
2023-03-17T07:14:27.710Z,96648.28
2023-03-17T07:16:54.411Z,96657.44
2023-03-17T07:19:21.079Z,96657.34
2023-03-17T07:21:47.748Z,96662.69
2023-03-17T07:24:14.413Z,96664.06
2023-03-17T07:26:41.074Z,96667.25
2023-03-17T07:29:07.857Z,96668.78
2023-03-17T07:31:34.533Z,96665.16
2023-03-17T07:34:01.314Z,96668.81
2023-03-17T07:36:28.007Z,96659.00
2023-03-17T07:38:54.691Z,96667.00
2023-03-17T07:41:21.371Z,96672.81
2023-03-17T07:43:48.088Z,96661.00
2023-03-17T07:46:14.827Z,96654.50
2023-03-17T07:48:41.504Z,96654.66
2023-03-17T07:51:13.257Z,96647.31
2023-03-17T07:53:39.932Z,96648.13
2023-03-17T07:56:06.989Z,96642.06
2023-03-17T07:58:33.882Z,96639.88
2023-03-17T08:01:06.565Z,96645.69
2023-03-17T08:03:33.344Z,96640.31
2023-03-17T08:06:00.183Z,96642.94
2023-03-17T08:08:26.921Z,96638.31
2023-03-17T08:10:57.552Z,96636.81
2023-03-17T08:13:24.199Z,96633.72
2023-03-17T08:15:52.399Z,96635.69
2023-03-17T08:18:19.040Z,96643.34
2023-03-17T08:20:45.681Z,96638.25
2023-03-17T08:23:12.330Z,96630.66
2023-03-17T08:25:39.032Z,96636.41
2023-03-17T08:28:14.787Z,96636.34
2023-03-17T08:30:44.808Z,96641.88
2023-03-17T08:33:11.727Z,96642.97
2023-03-17T08:35:41.130Z,96643.16
2023-03-17T08:38:07.880Z,96638.31
2023-03-17T08:40:34.918Z,96644.03
2023-03-17T08:43:01.658Z,96644.69
2023-03-17T08:45:28.558Z,96652.72
2023-03-17T08:47:55.346Z,96644.75
2023-03-17T08:50:22.674Z,96636.97
2023-03-17T08:52:49.726Z,96638.22
2023-03-17T08:55:16.571Z,96630.31
2023-03-17T08:57:43.349Z,96631.00
2023-03-17T09:00:11.424Z,96626.47
2023-03-17T09:02:38.922Z,96617.81
2023-03-17T09:05:06.576Z,96621.38
2023-03-17T09:07:33.548Z,96622.56
2023-03-17T09:10:00.477Z,96616.31
2023-03-17T09:12:27.185Z,96609.25
2023-03-17T09:14:53.846Z,96597.69
2023-03-17T09:17:20.688Z,96601.00
2023-03-17T09:19:47.377Z,96595.41
2023-03-17T09:22:14.869Z,96598.13
2023-03-17T09:24:41.533Z,96608.66
2023-03-17T09:27:08.409Z,96597.28
2023-03-17T09:29:35.131Z,96603.91
2023-03-17T09:32:01.800Z,96599.97
2023-03-17T09:34:28.426Z,96594.16
2023-03-17T09:36:55.069Z,96595.38
2023-03-17T09:39:22.527Z,96603.88
2023-03-17T09:42:02.178Z,96605.53
2023-03-17T09:44:45.888Z,96596.66
2023-03-17T09:47:41.050Z,96597.28
2023-03-17T09:50:19.730Z,96605.16
2023-03-17T09:52:46.401Z,96595.41
2023-03-17T09:55:20.350Z,96600.19
2023-03-17T09:57:47.005Z,96599.78
2023-03-17T10:00:20.850Z,96598.28
2023-03-17T10:02:47.995Z,96596.75
2023-03-17T10:05:21.784Z,96604.47
2023-03-17T10:07:57.364Z,96598.91
2023-03-17T10:10:26.826Z,96592.91
2023-03-17T10:13:06.813Z,96603.63
2023-03-17T10:15:35.228Z,96603.44
2023-03-17T10:18:08.668Z,96602.63
2023-03-17T10:20:36.063Z,96601.41
2023-03-17T10:23:05.153Z,96605.13
2023-03-17T10:25:33.378Z,96607.38
2023-03-17T10:28:18.902Z,96616.09
2023-03-17T10:30:45.539Z,96598.50
2023-03-17T10:33:12.219Z,96604.75
2023-03-17T10:35:38.870Z,96609.09
2023-03-17T10:38:18.750Z,96598.13
2023-03-17T10:40:46.870Z,96604.94
2023-03-17T10:43:19.122Z,96592.28
2023-03-17T10:46:00.094Z,96607.44
2023-03-17T10:48:26.989Z,96605.56
2023-03-17T10:50:56.045Z,96612.81
2023-03-17T10:53:23.757Z,96607.00
2023-03-17T10:55:51.573Z,96599.75
2023-03-17T10:58:19.839Z,96601.44
2023-03-17T11:01:02.704Z,96602.03
2023-03-17T11:03:30.710Z,96596.47
2023-03-17T11:06:02.099Z,96592.94
2023-03-17T11:08:33.055Z,96596.88
2023-03-17T11:10:59.714Z,96599.34
2023-03-17T11:13:29.975Z,96589.63
2023-03-17T11:16:05.565Z,96589.63
2023-03-17T11:18:35.062Z,96576.34
2023-03-17T11:21:04.787Z,96578.44
2023-03-17T11:23:40.039Z,96574.25
2023-03-17T11:26:37.698Z,96561.41
2023-03-17T11:29:30.767Z,96565.53
2023-03-17T11:32:13.937Z,96565.31
2023-03-17T11:35:04.781Z,96562.84
2023-03-17T11:37:37.251Z,96553.50
2023-03-17T11:40:15.661Z,96543.75
2023-03-17T11:42:55.376Z,96537.09
2023-03-17T11:45:26.103Z,96551.00
2023-03-17T11:48:20.995Z,96551.19
2023-03-17T11:50:55.675Z,96544.81
2023-03-17T11:53:33.064Z,96547.94
2023-03-17T11:56:20.496Z,96549.81
2023-03-17T11:58:49.705Z,96549.97
2023-03-17T12:01:22.975Z,96549.63
2023-03-17T12:04:15.602Z,96549.19
2023-03-17T12:06:44.345Z,96539.47
2023-03-17T12:09:40.010Z,96540.72
2023-03-17T12:12:06.646Z,96537.81
2023-03-17T12:14:39.870Z,96542.59
2023-03-17T12:17:21.943Z,96548.81
2023-03-17T12:20:01.176Z,96538.47
2023-03-17T12:22:29.764Z,96544.06
2023-03-17T12:25:18.162Z,96536.81
2023-03-17T12:28:18.700Z,96534.97
2023-03-17T12:31:03.510Z,96533.09
2023-03-17T12:33:47.434Z,96520.69
2023-03-17T12:36:14.818Z,96529.81
2023-03-17T12:39:03.220Z,96539.50
2023-03-17T12:41:56.912Z,96526.25
2023-03-17T12:44:33.415Z,96525.44
2023-03-17T12:47:15.167Z,96524.59
2023-03-17T12:49:53.686Z,96527.28
2023-03-17T12:52:26.280Z,96524.00
2023-03-17T12:54:52.942Z,96528.53
2023-03-17T12:57:21.529Z,96514.63
2023-03-17T12:59:49.355Z,96512.16
2023-03-17T13:02:28.148Z,96513.97
2023-03-17T13:04:56.091Z,96517.28
2023-03-17T13:07:23.232Z,96510.88
2023-03-17T13:09:50.408Z,96506.31
2023-03-17T13:12:41.025Z,96488.53
2023-03-17T13:15:22.800Z,96501.78
2023-03-17T13:17:49.629Z,96506.34
2023-03-17T13:20:19.802Z,96492.84
2023-03-17T13:23:11.210Z,96470.06
2023-03-17T13:25:40.658Z,96477.53
2023-03-17T13:28:12.972Z,96487.69
2023-03-17T13:30:42.591Z,96486.28
2023-03-17T13:33:09.373Z,96475.88
2023-03-17T13:35:47.374Z,96464.72
2023-03-17T13:38:29.248Z,96463.31
2023-03-17T13:41:31.308Z,96461.44
2023-03-17T13:44:16.396Z,96450.94
2023-03-17T13:46:55.057Z,96448.69
2023-03-17T13:49:39.242Z,96441.03
2023-03-17T13:52:13.780Z,96435.47
2023-03-17T13:55:03.426Z,96439.59
2023-03-17T13:57:39.159Z,96429.66
2023-03-17T14:00:17.888Z,96434.03
2023-03-17T14:02:46.504Z,96429.66
2023-03-17T14:05:25.118Z,96436.28
2023-03-17T14:07:59.752Z,96443.09
2023-03-17T14:10:28.203Z,96424.00
2023-03-17T14:13:29.993Z,96446.00
2023-03-17T14:16:12.625Z,96436.28
2023-03-17T14:18:44.182Z,96431.28
2023-03-17T14:21:33.150Z,96435.84
2023-03-17T14:24:01.507Z,96446.38
2023-03-17T14:26:29.358Z,96428.81
2023-03-17T14:28:58.654Z,96426.50
2023-03-17T14:31:28.824Z,96422.56
2023-03-17T14:33:59.407Z,96436.03
2023-03-17T14:36:26.875Z,96425.03
2023-03-17T14:38:54.924Z,96412.22
2023-03-17T14:41:25.715Z,96408.28
2023-03-17T14:43:53.532Z,96403.09
2023-03-17T14:46:27.085Z,96409.56
2023-03-17T14:49:00.595Z,96410.75
2023-03-17T14:51:33.043Z,96404.06
2023-03-17T14:54:00.899Z,96394.50
2023-03-17T14:56:32.439Z,96385.63
2023-03-17T14:59:06.491Z,96384.69
2023-03-17T15:01:43.201Z,96386.22
2023-03-17T15:04:19.889Z,96372.06
2023-03-17T15:07:05.602Z,96366.00
2023-03-17T15:09:36.903Z,96358.53
2023-03-17T15:12:13.290Z,96361.84
2023-03-17T15:14:40.076Z,96358.66
2023-03-17T15:17:14.418Z,96354.44
2023-03-17T15:19:44.629Z,96353.06
2023-03-17T15:22:24.448Z,96355.53
2023-03-17T15:25:17.240Z,96354.03
2023-03-17T15:27:44.326Z,96355.78
2023-03-17T15:30:11.510Z,96350.97
2023-03-17T15:32:38.202Z,96348.88
2023-03-17T15:35:05.429Z,96344.66
2023-03-17T15:37:33.421Z,96340.41
2023-03-17T15:40:00.725Z,96334.16
2023-03-17T15:42:36.456Z,96326.06
2023-03-17T15:45:03.381Z,96332.56
2023-03-17T15:47:33.922Z,96325.97
2023-03-17T15:50:21.282Z,96328.22
2023-03-17T15:52:47.959Z,96328.22
2023-03-17T15:55:21.902Z,96322.34
2023-03-17T15:57:54.736Z,96324.00
2023-03-17T16:00:22.507Z,96320.53
2023-03-17T16:02:50.511Z,96314.31
2023-03-17T16:05:19.054Z,96316.25
2023-03-17T16:07:46.167Z,96318.44
2023-03-17T16:10:17.723Z,96321.84
2023-03-17T16:12:44.523Z,96320.53
2023-03-17T16:15:22.499Z,96325.25
2023-03-17T16:17:51.863Z,96331.66
2023-03-17T16:20:26.334Z,96326.97
2023-03-17T16:22:56.568Z,96314.06
2023-03-17T16:25:27.041Z,96312.13
2023-03-17T16:27:54.980Z,96313.59
2023-03-17T16:30:30.815Z,96314.88
2023-03-17T16:33:06.677Z,96325.22
2023-03-17T16:35:33.393Z,96322.25
2023-03-17T16:38:00.031Z,96326.22
2023-03-17T16:40:29.054Z,96321.16
2023-03-17T16:42:55.824Z,96333.50
2023-03-17T16:45:30.160Z,96326.47
2023-03-17T16:47:57.046Z,96323.63
2023-03-17T16:50:24.838Z,96327.34
2023-03-17T16:52:51.506Z,96327.47
2023-03-17T16:55:18.656Z,96330.78
2023-03-17T16:57:46.624Z,96334.97
2023-03-17T17:00:24.131Z,96327.41
2023-03-17T17:02:51.277Z,96331.75
2023-03-17T17:05:19.614Z,96326.81
2023-03-17T17:07:46.384Z,96326.84
2023-03-17T17:10:13.198Z,96331.44
2023-03-17T17:12:40.150Z,96324.16
2023-03-17T17:15:07.603Z,96324.16
2023-03-17T17:17:34.782Z,96330.78
2023-03-17T17:20:01.601Z,96329.09
2023-03-17T17:22:29.077Z,96332.00
2023-03-17T17:24:55.701Z,96338.28
2023-03-17T17:27:22.510Z,96343.66
2023-03-17T17:29:49.208Z,96347.84
2023-03-17T17:32:17.113Z,96351.75
2023-03-17T17:34:43.736Z,96357.38
2023-03-17T17:37:10.964Z,96357.56
2023-03-17T17:39:37.614Z,96366.66
2023-03-17T17:42:04.301Z,96364.19
2023-03-17T17:44:30.945Z,96373.75
2023-03-17T17:46:57.649Z,96383.47
2023-03-17T17:49:24.319Z,96377.47
2023-03-17T17:51:51.036Z,96376.47
2023-03-17T17:54:17.693Z,96380.22
2023-03-17T17:56:44.337Z,96372.34
2023-03-17T17:59:10.963Z,96377.75
2023-03-17T18:01:37.648Z,96387.88
2023-03-17T18:04:04.336Z,96396.16
2023-03-17T18:06:31.050Z,96388.31
2023-03-17T18:08:57.681Z,96384.56
2023-03-17T18:11:24.482Z,96387.69
2023-03-17T18:13:51.123Z,96387.28
2023-03-17T18:16:18.871Z,96394.94
2023-03-17T18:18:45.582Z,96386.25
2023-03-17T18:21:12.937Z,96389.97
2023-03-17T18:23:39.793Z,96398.44
2023-03-17T18:26:06.420Z,96387.69
2023-03-17T18:28:33.115Z,96387.28
2023-03-17T18:31:06.424Z,96391.22
2023-03-17T18:33:33.371Z,96388.31
2023-03-17T18:36:00.394Z,96389.31
2023-03-17T18:38:27.055Z,96393.22
2023-03-17T18:40:53.707Z,96394.03
2023-03-17T18:43:20.811Z,96407.44
2023-03-17T18:45:47.518Z,96414.88
2023-03-17T18:48:14.161Z,96422.75
2023-03-17T18:50:40.812Z,96423.53
2023-03-17T18:53:07.459Z,96433.03
2023-03-17T18:55:34.082Z,96429.69
2023-03-17T18:58:00.752Z,96438.44
2023-03-17T19:00:27.411Z,96441.06
2023-03-17T19:02:54.092Z,96456.75
2023-03-17T19:05:20.791Z,96459.84
2023-03-17T19:07:47.448Z,96452.81
2023-03-17T19:10:14.462Z,96457.16
2023-03-17T19:12:41.321Z,96452.25
2023-03-17T19:15:08.489Z,96446.50
2023-03-17T19:17:35.160Z,96448.34
2023-03-17T19:20:01.830Z,96453.69
2023-03-17T19:22:28.467Z,96459.00
2023-03-17T19:24:55.108Z,96462.91
2023-03-17T19:27:21.757Z,96465.41
2023-03-17T19:29:48.434Z,96456.13
2023-03-17T19:32:15.059Z,96463.94
2023-03-17T19:34:41.668Z,96466.59
2023-03-17T19:37:08.309Z,96468.63
2023-03-17T19:39:34.951Z,96473.53
2023-03-17T19:42:01.595Z,96477.84
2023-03-17T19:44:28.241Z,96476.00
2023-03-17T19:46:54.867Z,96476.22
2023-03-17T19:49:21.505Z,96472.44
2023-03-17T19:51:48.755Z,96479.03
2023-03-17T19:54:15.378Z,96471.81
2023-03-17T19:56:42.012Z,96478.25
2023-03-17T19:59:08.657Z,96481.50
2023-03-17T20:01:35.350Z,96492.41
2023-03-17T20:04:02.082Z,96490.13
2023-03-17T20:06:28.794Z,96493.41
2023-03-17T20:08:55.498Z,96486.38
2023-03-17T20:11:22.129Z,96492.59
2023-03-17T20:13:48.792Z,96495.59
2023-03-17T20:16:15.428Z,96495.16
2023-03-17T20:18:42.138Z,96495.31
2023-03-17T20:21:12.210Z,96500.84
2023-03-17T20:23:38.872Z,96505.13
2023-03-17T20:26:05.622Z,96504.22
2023-03-17T20:28:32.262Z,96508.66
2023-03-17T20:30:59.101Z,96505.78
2023-03-17T20:33:25.766Z,96508.47
2023-03-17T20:35:52.424Z,96512.09
2023-03-17T20:38:19.092Z,96529.81
2023-03-17T20:40:45.760Z,96516.69
2023-03-17T20:43:12.429Z,96523.28
2023-03-17T20:45:39.122Z,96528.34
2023-03-17T20:48:05.804Z,96531.84
2023-03-17T20:50:33.487Z,96523.97
2023-03-17T20:53:00.353Z,96537.19
2023-03-17T20:55:27.010Z,96544.75
2023-03-17T20:57:53.629Z,96541.75
2023-03-17T21:00:22.396Z,96538.75
2023-03-17T21:02:49.121Z,96543.63
2023-03-17T21:05:22.362Z,96539.72
2023-03-17T21:07:49.008Z,96537.69
2023-03-17T21:10:15.960Z,96543.81
2023-03-17T21:12:42.629Z,96551.78
2023-03-17T21:15:09.521Z,96561.66
2023-03-17T21:17:37.070Z,96554.34
2023-03-17T21:20:04.617Z,96545.53
2023-03-17T21:22:31.611Z,96554.97
2023-03-17T21:24:58.239Z,96556.50
2023-03-17T21:27:24.926Z,96565.63
2023-03-17T21:29:51.601Z,96573.16
2023-03-17T21:32:18.261Z,96568.88
2023-03-17T21:34:44.909Z,96562.50
2023-03-17T21:37:11.548Z,96553.47
2023-03-17T21:39:38.203Z,96549.28
2023-03-17T21:42:04.853Z,96549.75
2023-03-17T21:44:31.521Z,96556.19
2023-03-17T21:46:58.176Z,96558.66
2023-03-17T21:49:24.883Z,96559.69
2023-03-17T21:51:51.566Z,96549.34
2023-03-17T21:54:18.258Z,96564.81
2023-03-17T21:56:44.882Z,96571.31
2023-03-17T21:59:11.534Z,96569.47
2023-03-17T22:01:38.874Z,96577.50
2023-03-17T22:04:05.600Z,96589.25
2023-03-17T22:06:32.237Z,96588.66
2023-03-17T22:08:58.884Z,96589.03
2023-03-17T22:11:25.519Z,96585.38
2023-03-17T22:13:52.170Z,96578.91
2023-03-17T22:16:18.833Z,96595.00
2023-03-17T22:18:45.670Z,96597.75
2023-03-17T22:21:12.350Z,96602.84
2023-03-17T22:23:38.987Z,96612.94
2023-03-17T22:26:05.842Z,96610.63
2023-03-17T22:28:33.505Z,96607.50
2023-03-17T22:31:00.166Z,96613.13
2023-03-17T22:33:26.809Z,96615.13
2023-03-17T22:35:53.550Z,96611.28
2023-03-17T22:38:20.244Z,96624.81
2023-03-17T22:40:46.958Z,96614.88
2023-03-17T22:43:13.823Z,96604.66
2023-03-17T22:45:40.508Z,96601.13
2023-03-17T22:48:07.280Z,96609.53
2023-03-17T22:50:34.358Z,96612.66
2023-03-17T22:53:01.228Z,96609.25
2023-03-17T22:55:27.897Z,96603.44
2023-03-17T22:57:54.528Z,96618.09
2023-03-17T23:00:21.328Z,96612.75
2023-03-17T23:02:47.982Z,96619.22
2023-03-17T23:05:14.708Z,96623.81
2023-03-17T23:07:50.466Z,96620.78
2023-03-17T23:10:18.946Z,96621.78
2023-03-17T23:12:45.583Z,96627.81
2023-03-17T23:15:12.314Z,96631.78
2023-03-17T23:17:39.028Z,96637.66
2023-03-17T23:20:06.151Z,96632.03
2023-03-17T23:22:32.916Z,96640.44
2023-03-17T23:24:59.584Z,96643.19
2023-03-17T23:27:26.214Z,96641.38
2023-03-17T23:29:52.863Z,96644.72
2023-03-17T23:32:19.517Z,96651.22
2023-03-17T23:34:46.172Z,96646.53
2023-03-17T23:37:12.822Z,96640.72
2023-03-17T23:39:39.527Z,96653.09
2023-03-17T23:42:06.246Z,96648.44
2023-03-17T23:44:32.892Z,96647.69
2023-03-17T23:46:59.598Z,96653.25
2023-03-17T23:49:26.242Z,96657.34
2023-03-17T23:51:52.873Z,96649.13
2023-03-17T23:54:19.505Z,96652.84
2023-03-17T23:56:46.183Z,96646.88
2023-03-17T23:59:12.838Z,96648.84
